Time;durP1;ratioP1;P1;durP2;ratioP2;P2;SDS_P1;SDS_P2;PMS_P1;PMS_P2;Temp;Humidity;BMP_temperature;BMP_pressure;BME280_temperature;BME280_humidity;BME280_pressure;Samples;Min_cycle;Max_cycle;Signal;HPM_P1;HPM_P2
2022/04/26 03:36:50;;;;;;;15.00;11.77;;;9.60;99.90;;;;;;4991783;28;20937;-75
2022/04/26 03:39:39;;;;;;;15.68;10.93;;;9.50;99.90;;;;;;5075042;28;20268;-75
2022/04/26 03:42:29;;;;;;;13.45;10.95;;;9.60;99.90;;;;;;5080622;28;20227;-75
2022/04/26 03:45:18;;;;;;;15.13;11.82;;;9.60;99.90;;;;;;5063371;28;20223;-75
2022/04/26 03:48:06;;;;;;;13.10;11.30;;;9.60;99.90;;;;;;5076789;28;20253;-75
2022/04/26 03:50:55;;;;;;;13.80;10.98;;;9.40;99.90;;;;;;5057883;28;20228;-75
2022/04/26 03:53:43;;;;;;;12.47;11.13;;;9.50;99.90;;;;;;5078435;28;20272;-75
2022/04/26 03:56:32;;;;;;;13.55;11.10;;;9.40;99.90;;;;;;5059365;28;20230;-75
2022/04/26 03:59:22;;;;;;;13.70;11.70;;;9.50;99.90;;;;;;5075529;28;20226;-75
2022/04/26 04:02:10;;;;;;;15.23;12.48;;;9.30;99.90;;;;;;5071176;28;20223;-75
2022/04/26 04:04:59;;;;;;;15.68;12.48;;;9.40;99.90;;;;;;5081044;28;20227;-75
2022/04/26 04:07:48;;;;;;;17.45;14.50;;;9.40;99.90;;;;;;5056361;28;20242;-75
2022/04/26 04:10:36;;;;;;;18.27;14.70;;;9.30;99.90;;;;;;5049806;28;20387;-79
2022/04/26 04:13:25;;;;;;;21.20;17.98;;;9.30;99.90;;;;;;5044047;28;20219;-75
2022/04/26 04:16:15;;;;;;;23.75;16.70;;;9.30;99.90;;;;;;5058074;28;20227;-75
2022/04/26 04:19:19;;;;;;;25.02;17.73;;;9.10;99.90;;;;;;5057490;28;20224;-75
2022/04/26 04:22:10;;;;;;;23.00;17.67;;;9.10;99.90;;;;;;5049547;28;20239;-76
2022/04/26 04:24:58;;;;;;;27.75;19.33;;;9.10;99.90;;;;;;5040971;28;20234;-74
2022/04/26 04:27:47;;;;;;;24.45;19.70;;;9.00;99.90;;;;;;5055479;28;20227;-75
2022/04/26 04:30:37;;;;;;;24.45;19.42;;;9.00;99.90;;;;;;5056841;28;20224;-75
2022/04/26 04:33:27;;;;;;;27.20;19.95;;;9.10;99.90;;;;;;5047552;28;20231;-75
2022/04/26 04:36:17;;;;;;;25.08;18.45;;;9.00;99.90;;;;;;5056588;28;20223;-75
2022/04/26 04:39:06;;;;;;;27.88;19.27;;;9.10;99.90;;;;;;5055220;28;20236;-76
2022/04/26 04:41:54;;;;;;;20.02;15.73;;;9.20;99.90;;;;;;5052355;28;20227;-81
2022/04/26 04:44:43;;;;;;;21.02;15.52;;;9.20;99.90;;;;;;5059418;28;20697;-79
2022/04/26 04:47:32;;;;;;;18.98;14.63;;;9.20;99.90;;;;;;5048419;28;20307;-81
2022/04/26 04:50:22;;;;;;;17.33;13.50;;;9.10;99.90;;;;;;5043042;28;20305;-79
2022/04/26 04:53:12;;;;;;;18.33;14.20;;;9.20;99.90;;;;;;5049459;28;20242;-79
2022/04/26 04:56:02;;;;;;;16.40;13.17;;;9.30;99.90;;;;;;5058164;28;20247;-79
2022/04/26 04:58:52;;;;;;;15.45;12.48;;;9.40;99.90;;;;;;5051077;28;20224;-79
2022/04/26 05:01:41;;;;;;;16.88;12.70;;;9.30;99.90;;;;;;5064938;28;20224;-78
2022/04/26 05:04:30;;;;;;;14.65;11.90;;;9.40;99.90;;;;;;5048169;28;20232;-79
2022/04/26 05:07:20;;;;;;;15.43;13.02;;;9.30;99.90;;;;;;5047087;28;20217;-79
2022/04/26 05:10:10;;;;;;;16.05;12.68;;;9.40;99.90;;;;;;5054397;28;20308;-79
2022/04/26 05:12:58;;;;;;;17.87;13.17;;;9.40;99.90;;;;;;5067046;28;20231;-79
2022/04/26 05:15:47;;;;;;;19.80;13.52;;;9.40;99.90;;;;;;5061998;28;20212;-79
2022/04/26 05:18:36;;;;;;;18.50;14.95;;;9.40;99.90;;;;;;5061360;28;20318;-79
2022/04/26 05:21:25;;;;;;;19.15;14.32;;;9.50;99.90;;;;;;5061862;28;20219;-79
2022/04/26 05:27:21;;;;;;;20.60;15.02;;;9.40;99.90;;;;;;5066334;28;20247;-80
2022/04/26 05:30:12;;;;;;;21.05;15.52;;;9.40;99.90;;;;;;5059699;28;20564;-80
2022/04/26 05:33:01;;;;;;;19.63;14.85;;;9.40;99.90;;;;;;5064580;28;20593;-80
2022/04/26 05:35:49;;;;;;;21.27;15.30;;;9.50;99.90;;;;;;5047456;28;20231;-79
2022/04/26 05:38:38;;;;;;;19.23;14.40;;;9.60;99.90;;;;;;5063909;28;20224;-79
2022/04/26 05:41:28;;;;;;;17.08;12.88;;;9.60;99.90;;;;;;5047852;28;20224;-81
2022/04/26 05:44:17;;;;;;;16.80;13.10;;;9.70;99.90;;;;;;5059306;28;20224;-79
2022/04/26 05:47:07;;;;;;;19.60;14.57;;;9.50;99.90;;;;;;5055845;28;20780;-73
2022/04/26 05:49:57;;;;;;;20.25;14.90;;;9.50;99.90;;;;;;5050674;28;20234;-74
2022/04/26 05:52:45;;;;;;;17.98;14.70;;;9.40;99.90;;;;;;5055501;28;20228;-74
2022/04/26 05:55:34;;;;;;;21.05;15.50;;;9.20;99.90;;;;;;5052635;28;20221;-75
2022/04/26 05:58:24;;;;;;;23.95;15.93;;;9.50;99.90;;;;;;5052901;28;20229;-74
2022/04/26 06:01:13;;;;;;;24.38;17.45;;;9.60;99.90;;;;;;5047203;28;20602;-74
2022/04/26 06:04:02;;;;;;;22.88;16.95;;;9.50;99.90;;;;;;5059439;28;20216;-73
2022/04/26 06:06:50;;;;;;;24.63;18.08;;;9.60;99.90;;;;;;5076616;28;20245;-74
2022/04/26 06:09:40;;;;;;;25.38;17.83;;;9.30;99.90;;;;;;5075385;28;20223;-74
2022/04/26 06:12:28;;;;;;;22.65;16.77;;;9.30;99.90;;;;;;5077099;28;20228;-74
2022/04/26 06:15:19;;;;;;;25.55;17.33;;;9.40;99.90;;;;;;5057950;28;20231;-74
2022/04/26 06:18:07;;;;;;;21.83;16.70;;;9.30;99.90;;;;;;5052822;28;20346;-74
2022/04/26 06:20:56;;;;;;;25.45;17.85;;;9.10;99.90;;;;;;5075469;28;20373;-75
2022/04/26 06:23:44;;;;;;;27.58;19.67;;;9.20;99.90;;;;;;5062210;28;22115;-75
2022/04/26 06:26:33;;;;;;;26.45;19.00;;;9.20;99.90;;;;;;5080369;28;20298;-79
2022/04/26 06:29:22;;;;;;;24.92;18.13;;;9.50;99.90;;;;;;5080766;28;20228;-74
2022/04/26 06:32:12;;;;;;;21.10;16.08;;;9.50;99.90;;;;;;5078841;28;20322;-76
2022/04/26 06:35:01;;;;;;;22.00;15.25;;;9.70;99.90;;;;;;5078631;28;20220;-75
2022/04/26 06:37:50;;;;;;;21.00;15.95;;;9.70;99.90;;;;;;5075723;28;20721;-74
2022/04/26 06:40:39;;;;;;;17.55;13.18;;;9.80;99.90;;;;;;5052070;28;20818;-76
2022/04/26 06:43:32;;;;;;;18.92;14.38;;;9.50;99.90;;;;;;5069786;28;20527;-75
2022/04/26 06:46:21;;;;;;;17.38;13.55;;;9.50;99.90;;;;;;5045347;28;20226;-75
2022/04/26 06:49:11;;;;;;;17.30;13.50;;;9.60;99.90;;;;;;5071873;28;20295;-75
2022/04/26 06:52:00;;;;;;;18.90;13.80;;;9.70;99.90;;;;;;5064784;28;20226;-75
2022/04/26 06:54:48;;;;;;;16.65;11.68;;;9.60;99.90;;;;;;5064212;28;20219;-76
2022/04/26 06:57:37;;;;;;;14.88;11.70;;;9.60;99.90;;;;;;5076424;28;20210;-75
2022/04/26 07:00:27;;;;;;;13.50;11.02;;;9.80;99.90;;;;;;5071344;28;20224;-75
2022/04/26 07:03:16;;;;;;;14.90;10.77;;;9.80;99.90;;;;;;5071692;28;20413;-76
2022/04/26 07:06:06;;;;;;;19.50;12.18;;;9.80;99.90;;;;;;5072588;28;20740;-76
2022/04/26 07:08:56;;;;;;;14.60;12.10;;;9.70;99.90;;;;;;5060746;28;20259;-76
2022/04/26 07:11:45;;;;;;;19.83;13.73;;;9.80;99.90;;;;;;5070610;28;20222;-75
2022/04/26 07:14:34;;;;;;;13.57;11.30;;;9.80;99.90;;;;;;5072237;28;20384;-76
2022/04/26 07:17:24;;;;;;;13.93;11.90;;;10.00;99.90;;;;;;5072532;28;20311;-74
2022/04/26 07:20:12;;;;;;;13.82;10.95;;;10.00;99.90;;;;;;5061614;28;20243;-75
2022/04/26 07:23:02;;;;;;;14.40;11.40;;;10.10;99.90;;;;;;5062593;28;20328;-75
2022/04/26 07:25:52;;;;;;;13.88;11.38;;;9.90;99.90;;;;;;5076341;28;20259;-75
2022/04/26 07:28:40;;;;;;;11.25;10.05;;;9.80;99.90;;;;;;5063558;28;20237;-74
2022/04/26 07:31:30;;;;;;;12.15;10.38;;;10.10;99.90;;;;;;5074110;28;20222;-74
2022/04/26 07:34:24;;;;;;;12.75;11.00;;;10.30;99.90;;;;;;5074602;28;20349;-74
2022/04/26 07:37:13;;;;;;;13.18;11.50;;;10.30;99.90;;;;;;5080509;28;20697;-75
2022/04/26 07:40:03;;;;;;;15.50;11.70;;;10.20;99.90;;;;;;5061951;28;20212;-73
2022/04/26 07:42:52;;;;;;;11.90;10.45;;;10.20;99.90;;;;;;5079041;28;20660;-75
2022/04/26 07:45:42;;;;;;;13.68;10.77;;;10.30;99.90;;;;;;5066305;28;20215;-74
2022/04/26 07:48:30;;;;;;;14.68;11.23;;;10.40;99.90;;;;;;5076872;28;20235;-74
2022/04/26 07:51:19;;;;;;;15.35;11.77;;;10.50;99.90;;;;;;5080749;28;20229;-75
2022/04/26 07:54:08;;;;;;;14.55;11.95;;;10.50;99.90;;;;;;5063255;28;20226;-73
2022/04/26 07:56:58;;;;;;;16.25;12.95;;;10.40;99.90;;;;;;5077149;28;20231;-75
2022/04/26 07:59:47;;;;;;;16.75;14.00;;;10.30;99.90;;;;;;5076490;28;20778;-76
2022/04/26 08:02:37;;;;;;;19.27;15.25;;;10.20;99.90;;;;;;5053494;28;20263;-75
2022/04/26 08:05:26;;;;;;;20.20;14.88;;;10.30;99.90;;;;;;5072965;28;20530;-74
2022/04/26 08:08:15;;;;;;;16.27;13.60;;;10.30;99.90;;;;;;5062669;28;20235;-74
2022/04/26 08:11:05;;;;;;;17.33;14.02;;;10.20;99.90;;;;;;5072853;28;20225;-74
2022/04/26 08:13:56;;;;;;;18.35;14.07;;;10.30;99.90;;;;;;5065165;28;20216;-74
2022/04/26 08:16:45;;;;;;;16.67;13.85;;;10.30;99.90;;;;;;5068070;28;20219;-75
2022/04/26 08:19:33;;;;;;;17.35;13.48;;;10.50;99.90;;;;;;5072182;28;20369;-76
2022/04/26 08:22:23;;;;;;;17.92;13.40;;;10.40;99.90;;;;;;5065575;28;20578;-75
2022/04/26 08:28:18;;;;;;;21.05;13.32;;;10.60;99.90;;;;;;5054720;28;20223;-76
2022/04/26 08:31:08;;;;;;;23.10;16.33;;;10.70;99.90;;;;;;5079564;28;20224;-75
2022/04/26 08:33:58;;;;;;;26.63;17.55;;;10.60;99.90;;;;;;5081602;28;20677;-75
2022/04/26 08:36:47;;;;;;;26.77;17.88;;;10.70;99.90;;;;;;5071434;28;20697;-75
2022/04/26 08:39:36;;;;;;;25.17;17.27;;;10.90;99.90;;;;;;5081045;28;20226;-75
2022/04/26 08:42:36;;;;;;;20.70;16.38;;;11.10;99.90;;;;;;5078768;28;20247;-74
2022/04/26 08:45:33;;;;;;;29.40;18.40;;;10.70;99.90;;;;;;5065369;28;21308;-81
2022/04/26 08:51:29;;;;;;;19.95;14.98;;;10.70;99.90;;;;;;5078459;28;20372;-75
2022/04/26 08:54:18;;;;;;;19.17;14.85;;;10.70;99.90;;;;;;5052763;28;20227;-74
2022/04/26 10:22:11;;;;;;;18.45;13.85;;;12.20;99.90;;;;;;5072255;27;20639;-75
2022/04/26 10:25:11;;;;;;;17.40;12.60;;;12.60;99.90;;;;;;5070905;28;20220;-74
2022/04/26 10:28:23;;;;;;;16.67;12.13;;;12.60;99.90;;;;;;5083931;28;20218;-75
2022/04/26 10:31:12;;;;;;;15.32;12.48;;;12.40;99.90;;;;;;5091526;28;20223;-76
2022/04/26 10:34:03;;;;;;;15.75;12.50;;;12.20;99.90;;;;;;5095781;28;20223;-75
2022/04/26 10:36:52;;;;;;;20.38;13.15;;;12.00;99.90;;;;;;5083477;28;20218;-74
2022/04/26 10:39:46;;;;;;;17.05;13.93;;;11.80;99.90;;;;;;5094624;28;20216;-74
2022/04/26 10:42:35;;;;;;;17.63;13.20;;;11.90;99.90;;;;;;5089448;28;20223;-75
2022/04/26 10:45:24;;;;;;;16.85;12.73;;;12.10;99.90;;;;;;5088714;28;20306;-75
2022/04/26 10:48:25;;;;;;;19.80;14.38;;;12.00;99.90;;;;;;5092039;28;20227;-74
2022/04/26 10:51:34;;;;;;;18.33;13.68;;;12.10;99.90;;;;;;5073655;28;20245;-74
2022/04/26 10:55:03;;;;;;;19.60;14.18;;;12.30;99.90;;;;;;5090273;28;20225;-74
2022/04/26 10:57:52;;;;;;;16.85;12.80;;;12.40;99.90;;;;;;5087270;28;20215;-70
2022/04/26 11:00:41;;;;;;;17.20;12.75;;;12.80;99.90;;;;;;5078905;28;20223;-72
2022/04/26 11:03:30;;;;;;;15.57;12.30;;;12.70;99.90;;;;;;5079768;28;20726;-71
2022/04/26 11:06:33;;;;;;;16.40;13.68;;;12.80;99.90;;;;;;5092013;28;20253;-71
2022/04/26 11:09:22;;;;;;;16.65;11.73;;;13.10;99.90;;;;;;5072922;28;20214;-72
2022/04/26 11:12:11;;;;;;;17.83;13.40;;;13.20;99.90;;;;;;5085767;28;20227;-71
2022/04/26 11:15:02;;;;;;;18.25;13.13;;;13.50;99.90;;;;;;5089543;28;20228;-72
2022/04/26 11:17:52;;;;;;;17.58;12.90;;;13.70;99.90;;;;;;5085093;28;20733;-71
2022/04/26 11:20:41;;;;;;;14.13;11.32;;;13.70;99.90;;;;;;5084423;28;20228;-71
2022/04/26 11:30:00;;;;;;;14.05;10.88;;;13.50;99.90;;;;;;5086404;28;20325;-72
2022/04/26 11:32:49;;;;;;;16.42;11.27;;;13.80;99.90;;;;;;5077491;28;20332;-71
2022/04/26 11:35:38;;;;;;;15.23;11.23;;;14.00;99.90;;;;;;5057931;28;20394;-72
2022/04/26 11:38:27;;;;;;;12.55;10.48;;;13.80;99.90;;;;;;5075336;28;20224;-71
2022/04/26 11:41:18;;;;;;;19.65;12.85;;;13.80;99.90;;;;;;5058081;28;20226;-71
2022/04/26 11:44:07;;;;;;;15.13;11.18;;;13.60;99.90;;;;;;5077767;28;20223;-71
2022/04/26 11:47:00;;;;;;;13.02;10.40;;;13.60;99.90;;;;;;5075728;28;20230;-70
2022/04/26 11:49:49;;;;;;;12.85;9.98;;;13.80;99.90;;;;;;5076546;28;20228;-71
2022/04/26 11:52:38;;;;;;;14.82;11.20;;;13.90;99.90;;;;;;5071922;28;20594;-71
2022/04/26 11:55:28;;;;;;;16.40;11.40;;;13.80;99.90;;;;;;5072781;28;20231;-71
2022/04/26 11:58:18;;;;;;;17.52;12.70;;;13.40;99.90;;;;;;5073105;28;20215;-70
2022/04/26 12:01:11;;;;;;;17.25;12.55;;;13.20;99.90;;;;;;5060870;28;20216;-71
2022/04/26 12:04:02;;;;;;;18.15;13.30;;;13.20;99.90;;;;;;5057928;28;20226;-71
2022/04/26 12:06:54;;;;;;;17.77;11.57;;;13.30;99.90;;;;;;5078648;28;20307;-72
2022/04/26 12:09:43;;;;;;;17.40;11.48;;;13.60;99.90;;;;;;5060386;28;20236;-71
2022/04/26 12:12:31;;;;;;;16.10;11.38;;;13.60;99.90;;;;;;5076243;28;20950;-71
2022/04/26 12:15:25;;;;;;;15.35;11.15;;;13.90;99.90;;;;;;5068514;28;20243;-71
2022/04/26 12:18:15;;;;;;;15.73;12.52;;;13.90;99.90;;;;;;5059082;28;20720;-71
2022/04/26 12:21:05;;;;;;;13.43;10.60;;;14.00;99.90;;;;;;5058677;28;20231;-70
2022/04/26 12:24:14;;;;;;;14.00;11.32;;;14.20;99.90;;;;;;5069880;28;20231;-71
2022/04/26 12:27:05;;;;;;;13.35;10.20;;;13.90;99.90;;;;;;5073839;28;20238;-71
2022/04/26 12:29:54;;;;;;;16.48;11.85;;;13.90;99.90;;;;;;5066499;28;20250;-71
2022/04/26 12:32:43;;;;;;;16.77;12.30;;;14.20;99.90;;;;;;5071907;28;20223;-70
2022/04/26 12:35:32;;;;;;;14.27;9.88;;;14.20;99.90;;;;;;5068795;28;20228;-71
2022/04/26 12:38:22;;;;;;;11.00;9.02;;;14.30;99.90;;;;;;5061039;28;20229;-71
2022/04/26 12:41:10;;;;;;;11.65;8.27;;;14.40;99.90;;;;;;5056766;28;20227;-71
2022/04/26 12:44:02;;;;;;;10.05;8.45;;;14.50;99.90;;;;;;5074413;28;20232;-71
2022/04/26 12:50:31;;;;;;;12.50;8.45;;;14.20;99.90;;;;;;5059635;28;20220;-72
2022/04/26 12:53:26;;;;;;;13.02;8.73;;;13.80;99.90;;;;;;5071582;28;21686;-71
2022/04/26 12:56:15;;;;;;;12.75;8.10;;;14.30;99.90;;;;;;5063431;28;20235;-70
2022/04/26 12:59:03;;;;;;;14.45;10.00;;;14.10;99.90;;;;;;5066813;28;20231;-72
2022/04/26 13:01:52;;;;;;;13.00;8.73;;;14.20;99.90;;;;;;5073553;28;20874;-71
2022/04/26 13:04:41;;;;;;;12.68;8.48;;;14.30;99.90;;;;;;5071223;28;20227;-70
2022/04/26 13:07:31;;;;;;;15.82;9.23;;;14.20;99.90;;;;;;5068593;28;20215;-73
2022/04/26 13:10:22;;;;;;;12.93;8.65;;;14.10;99.90;;;;;;5072651;28;20223;-71
2022/04/26 13:13:12;;;;;;;11.85;8.05;;;14.00;99.90;;;;;;5071403;28;20219;-71
2022/04/26 13:16:01;;;;;;;10.38;7.90;;;13.90;99.90;;;;;;5073268;28;20447;-72
2022/04/26 13:18:50;;;;;;;10.05;8.20;;;14.00;99.90;;;;;;5069431;28;20678;-70
2022/04/26 13:21:39;;;;;;;11.57;9.00;;;13.90;99.90;;;;;;5067229;28;20241;-71
2022/04/26 13:24:30;;;;;;;10.88;8.18;;;14.20;99.90;;;;;;5071944;28;20220;-71
2022/04/26 13:27:21;;;;;;;12.38;8.30;;;14.10;99.90;;;;;;5067885;28;20346;-71
2022/04/26 13:30:10;;;;;;;11.38;8.73;;;14.10;99.90;;;;;;5071752;28;20212;-71
2022/04/26 13:32:59;;;;;;;11.80;8.30;;;14.10;99.90;;;;;;5064700;28;20732;-71
2022/04/26 13:35:48;;;;;;;11.85;8.32;;;14.10;99.90;;;;;;5066004;28;20329;-70
2022/04/26 13:38:38;;;;;;;11.70;8.50;;;14.00;99.90;;;;;;5057401;28;20228;-70
2022/04/26 16:20:30;;;;;;;12.23;7.95;;;12.50;99.90;;;;;;5078216;27;26224;-71
2022/04/26 16:23:19;;;;;;;11.05;8.00;;;12.50;99.90;;;;;;5055163;28;20758;-70
2022/04/26 16:26:08;;;;;;;11.30;7.90;;;12.60;99.90;;;;;;5053820;28;20321;-71
2022/04/26 16:28:57;;;;;;;10.30;7.93;;;12.60;99.90;;;;;;5068314;28;20231;-76
2022/04/26 16:31:47;;;;;;;12.85;8.00;;;12.70;99.90;;;;;;5063350;28;20213;-72
2022/04/26 16:34:36;;;;;;;12.95;8.63;;;12.70;99.90;;;;;;5065397;28;20924;-72
2022/04/26 16:37:27;;;;;;;9.88;7.97;;;12.70;99.90;;;;;;5056544;28;20220;-72
2022/04/26 16:40:16;;;;;;;11.52;8.00;;;12.70;99.90;;;;;;5059806;28;20236;-73
2022/04/26 16:43:04;;;;;;;14.48;9.20;;;12.70;99.90;;;;;;5055563;28;20220;-72
2022/04/26 16:45:53;;;;;;;20.63;9.13;;;12.80;99.90;;;;;;5043185;28;20220;-72
2022/04/26 16:48:46;;;;;;;10.00;8.30;;;12.70;99.90;;;;;;5042756;28;20208;-72
2022/04/26 16:51:35;;;;;;;11.38;7.60;;;12.70;99.90;;;;;;5056808;28;20220;-72
2022/04/26 16:54:25;;;;;;;11.50;7.70;;;12.60;99.90;;;;;;5056619;28;20232;-71
2022/04/26 16:57:14;;;;;;;14.60;8.60;;;12.60;99.90;;;;;;5058666;28;20224;-77
2022/04/26 17:00:03;;;;;;;13.63;8.70;;;12.70;99.90;;;;;;5060054;28;20247;-72
2022/04/26 17:02:52;;;;;;;11.00;8.25;;;12.70;99.90;;;;;;5052899;28;20221;-72
2022/04/26 17:05:45;;;;;;;11.60;8.23;;;12.70;99.90;;;;;;5041405;28;20301;-72
2022/04/26 17:08:35;;;;;;;13.25;9.00;;;12.60;99.90;;;;;;5054933;28;20208;-72
2022/04/26 17:11:43;;;;;;;13.75;7.78;;;12.60;99.90;;;;;;5049360;28;20236;-73
2022/04/26 17:14:35;;;;;;;12.95;8.38;;;12.70;99.90;;;;;;5052660;28;20232;-72
2022/04/26 17:17:27;;;;;;;10.50;8.25;;;12.70;99.90;;;;;;5053476;28;20228;-72
2022/04/26 17:20:16;;;;;;;13.70;8.52;;;12.80;99.90;;;;;;5035124;28;20227;-73
2022/04/26 17:23:05;;;;;;;11.90;8.50;;;12.80;99.90;;;;;;5035905;28;20673;-71
2022/04/26 17:25:54;;;;;;;13.70;8.45;;;12.70;99.90;;;;;;5034428;28;20220;-72
2022/04/26 17:28:44;;;;;;;12.45;8.75;;;12.70;99.90;;;;;;5033410;28;20216;-73
2022/04/26 17:31:33;;;;;;;11.95;8.50;;;12.70;99.90;;;;;;5006060;28;20226;-77
2022/04/26 17:34:23;;;;;;;16.38;8.90;;;12.70;99.90;;;;;;5021837;28;20236;-71
2022/04/26 17:37:13;;;;;;;13.00;8.63;;;12.80;99.90;;;;;;5023783;28;20233;-73
2022/04/26 17:40:02;;;;;;;13.48;9.18;;;12.70;99.90;;;;;;5024154;28;20992;-72
2022/04/26 17:42:50;;;;;;;13.63;8.35;;;12.60;99.90;;;;;;5023666;28;20338;-71
2022/04/26 17:45:41;;;;;;;14.93;8.98;;;12.70;99.90;;;;;;5023956;28;20282;-74
2022/04/26 17:48:32;;;;;;;14.13;9.10;;;12.60;99.90;;;;;;5026014;28;20222;-72
2022/04/26 17:51:21;;;;;;;15.40;9.38;;;12.70;99.90;;;;;;5023236;28;20599;-72
2022/04/26 17:57:16;;;;;;;17.35;9.27;;;12.60;99.90;;;;;;5013704;28;20864;-72
2022/04/26 18:00:08;;;;;;;17.38;9.50;;;12.60;99.90;;;;;;5021340;28;20233;-71
2022/04/26 18:03:01;;;;;;;11.32;8.68;;;12.70;99.90;;;;;;5024234;28;20245;-72
2022/04/26 18:05:50;;;;;;;12.60;9.23;;;12.60;99.90;;;;;;5018389;28;20248;-74
2022/04/26 18:08:44;;;;;;;14.32;8.48;;;12.50;99.90;;;;;;5020472;28;20773;-73
2022/04/26 18:11:33;;;;;;;12.15;9.00;;;12.50;99.90;;;;;;5007709;28;20707;-72
2022/04/26 18:14:21;;;;;;;10.88;8.60;;;12.50;99.90;;;;;;5012987;28;20235;-73
2022/04/26 18:17:10;;;;;;;14.55;9.80;;;12.50;99.90;;;;;;5021537;28;20240;-73
2022/04/26 18:20:00;;;;;;;13.10;8.55;;;12.50;99.90;;;;;;5022032;28;20241;-72
2022/04/26 18:22:49;;;;;;;12.65;9.00;;;12.60;99.90;;;;;;5015108;28;20229;-72
2022/04/26 18:28:45;;;;;;;12.82;9.23;;;12.50;99.90;;;;;;5013740;28;20229;-71
2022/04/26 18:31:36;;;;;;;13.65;8.93;;;12.50;99.90;;;;;;5021956;28;20217;-72
2022/04/26 18:34:26;;;;;;;12.57;9.07;;;12.50;99.90;;;;;;5015881;28;20221;-74
2022/04/26 18:37:17;;;;;;;11.65;8.25;;;12.50;99.90;;;;;;4996830;28;20229;-73
2022/04/26 18:40:07;;;;;;;14.80;11.05;;;12.50;99.90;;;;;;5018617;28;20719;-72
2022/04/26 18:42:56;;;;;;;11.70;9.23;;;12.50;99.90;;;;;;5019208;28;20250;-73
2022/04/26 18:45:45;;;;;;;13.48;9.00;;;12.50;99.90;;;;;;5021162;28;20221;-73
2022/04/26 18:48:37;;;;;;;12.77;8.32;;;12.50;99.90;;;;;;5021705;28;20227;-72
2022/04/26 18:51:26;;;;;;;11.10;9.35;;;12.50;99.90;;;;;;5001789;28;20271;-72
2022/04/26 18:54:16;;;;;;;11.70;8.50;;;12.50;99.90;;;;;;5017191;28;20696;-71
2022/04/26 18:57:05;;;;;;;13.43;8.75;;;12.50;99.90;;;;;;5024776;28;20249;-72
2022/04/26 18:59:55;;;;;;;17.35;9.68;;;12.50;99.90;;;;;;5021111;28;20288;-73
2022/04/26 19:02:45;;;;;;;11.77;8.93;;;12.50;99.90;;;;;;5024243;28;20569;-72
2022/04/26 19:05:34;;;;;;;13.60;9.63;;;12.40;99.90;;;;;;5024286;28;20563;-73
2022/04/26 19:08:25;;;;;;;12.60;9.70;;;12.40;99.90;;;;;;5023378;28;20218;-73
2022/04/26 19:14:22;;;;;;;12.75;9.30;;;12.40;99.90;;;;;;5016210;28;20237;-72
2022/04/26 19:17:11;;;;;;;12.90;9.63;;;12.50;99.90;;;;;;5012559;28;20296;-72
2022/04/26 19:19:59;;;;;;;13.27;9.50;;;12.50;99.90;;;;;;5023401;28;20226;-73
2022/04/26 19:22:48;;;;;;;15.13;10.48;;;12.50;99.90;;;;;;5023002;28;20218;-73
2022/04/26 19:25:37;;;;;;;13.75;10.57;;;12.50;99.90;;;;;;5009825;28;20226;-73
2022/04/26 19:28:28;;;;;;;15.25;10.65;;;12.50;99.90;;;;;;5021154;28;20708;-72
2022/04/26 19:31:17;;;;;;;13.70;10.10;;;12.40;99.90;;;;;;5025035;28;20238;-71
2022/04/26 19:34:06;;;;;;;14.35;10.38;;;12.40;99.90;;;;;;5020303;28;20218;-73
2022/04/26 19:36:55;;;;;;;13.23;10.00;;;12.40;99.90;;;;;;5021119;28;20240;-72
2022/04/26 19:39:43;;;;;;;15.77;10.77;;;12.40;99.90;;;;;;5010867;28;20232;-72
2022/04/26 19:42:32;;;;;;;13.63;10.20;;;12.40;99.90;;;;;;5001520;28;20266;-72
2022/04/26 19:45:22;;;;;;;19.17;11.60;;;12.40;99.90;;;;;;5010952;28;20359;-72
2022/04/26 19:48:12;;;;;;;12.70;10.80;;;12.40;99.90;;;;;;5023725;28;20236;-72
2022/04/26 19:54:08;;;;;;;15.52;11.15;;;12.40;99.90;;;;;;5017647;28;20229;-73
2022/04/26 19:56:56;;;;;;;13.77;10.98;;;12.50;99.90;;;;;;5020105;28;20723;-73
2022/04/26 19:59:45;;;;;;;17.25;11.50;;;12.40;99.90;;;;;;5022955;28;20217;-72
2022/04/26 20:02:36;;;;;;;18.83;10.70;;;12.40;99.90;;;;;;5022829;28;20230;-73
2022/04/26 20:05:24;;;;;;;13.95;10.88;;;12.40;99.90;;;;;;5018798;28;20223;-72
2022/04/26 20:08:13;;;;;;;15.10;11.40;;;12.40;99.90;;;;;;5021583;28;20314;-73
2022/04/26 20:11:02;;;;;;;18.17;12.10;;;12.40;99.90;;;;;;5018408;28;20225;-73
2022/04/26 20:13:51;;;;;;;20.38;12.38;;;12.30;99.90;;;;;;5020111;28;20228;-72
2022/04/26 20:16:42;;;;;;;19.58;13.00;;;12.40;99.90;;;;;;5021328;28;20721;-73
2022/04/26 20:19:33;;;;;;;18.70;11.93;;;12.40;99.90;;;;;;5023592;28;20231;-73
2022/04/26 20:22:26;;;;;;;23.13;12.93;;;12.40;99.90;;;;;;5018234;28;20224;-72
2022/04/26 20:25:15;;;;;;;24.73;13.88;;;12.40;99.90;;;;;;5010207;28;20221;-73
2022/04/26 20:31:09;;;;;;;22.73;13.90;;;12.30;99.90;;;;;;5013789;28;20236;-72
2022/04/26 20:33:58;;;;;;;24.58;14.55;;;12.20;99.90;;;;;;5020745;28;20240;-72
2022/04/26 20:36:50;;;;;;;23.40;14.05;;;12.20;99.90;;;;;;5018908;28;20305;-72
2022/04/26 20:39:39;;;;;;;23.02;13.43;;;12.20;99.90;;;;;;5005450;28;20325;-72
2022/04/26 20:42:27;;;;;;;20.20;13.00;;;12.20;99.90;;;;;;5023148;28;20332;-71
2022/04/26 20:45:17;;;;;;;22.35;14.77;;;12.10;99.90;;;;;;5023013;28;20241;-72
2022/04/26 20:48:06;;;;;;;25.55;16.83;;;12.10;99.90;;;;;;5018898;28;21011;-72
2022/04/26 20:50:56;;;;;;;27.85;16.90;;;12.00;99.90;;;;;;5018858;28;20583;-72
2022/04/26 20:53:46;;;;;;;25.25;16.20;;;12.00;99.90;;;;;;5008273;28;20236;-70
2022/04/26 20:56:34;;;;;;;26.75;18.42;;;11.80;99.90;;;;;;5011551;28;20539;-71
2022/04/26 20:59:23;;;;;;;33.80;19.15;;;11.80;99.90;;;;;;5021969;28;20692;-71
2022/04/26 21:02:12;;;;;;;29.88;19.55;;;11.80;99.90;;;;;;5019411;28;20300;-73
2022/04/26 21:05:01;;;;;;;28.42;19.67;;;11.80;99.90;;;;;;5024230;28;20225;-73
2022/04/26 21:07:49;;;;;;;28.80;19.75;;;11.80;99.90;;;;;;5017298;28;20366;-75
2022/04/26 21:10:39;;;;;;;36.33;21.92;;;11.90;99.90;;;;;;5029033;28;20221;-73
2022/04/26 21:13:30;;;;;;;31.13;20.88;;;11.80;99.90;;;;;;5026445;28;20225;-73
2022/04/26 21:16:20;;;;;;;31.05;20.60;;;11.70;99.90;;;;;;5029039;28;20230;-73
2022/04/26 21:19:09;;;;;;;33.55;22.05;;;11.80;99.90;;;;;;5028127;28;20747;-73
2022/04/26 21:21:57;;;;;;;29.95;21.35;;;11.80;99.90;;;;;;5025789;28;20700;-75
2022/04/26 21:24:46;;;;;;;31.58;22.63;;;11.80;99.90;;;;;;5023447;28;20348;-72
2022/04/26 21:27:36;;;;;;;32.60;22.15;;;11.80;99.90;;;;;;5022803;28;20881;-73
2022/04/26 21:30:25;;;;;;;31.80;22.02;;;11.70;99.90;;;;;;5026367;28;20222;-73
2022/04/26 21:33:14;;;;;;;31.27;22.38;;;11.70;99.90;;;;;;5028433;28;20225;-73
2022/04/26 21:36:05;;;;;;;30.80;21.83;;;11.60;99.90;;;;;;5026408;28;20228;-72
2022/04/26 21:38:54;;;;;;;31.77;22.95;;;11.60;99.90;;;;;;5025521;28;20707;-72
2022/04/26 21:41:43;;;;;;;30.50;22.67;;;11.60;99.90;;;;;;5028017;28;20288;-73
2022/04/26 21:44:35;;;;;;;33.78;24.60;;;11.70;99.90;;;;;;5026851;28;20866;-74
2022/04/26 21:47:25;;;;;;;32.35;22.05;;;11.70;99.90;;;;;;5027639;28;20252;-72
2022/04/26 21:53:20;;;;;;;29.73;21.95;;;11.60;99.90;;;;;;5025601;28;20335;-73
2022/04/26 21:56:08;;;;;;;30.55;22.60;;;11.60;99.90;;;;;;5026277;28;20237;-73
2022/04/26 21:58:58;;;;;;;31.85;22.83;;;11.50;99.90;;;;;;5024576;28;20225;-73
2022/04/26 22:01:48;;;;;;;32.70;22.15;;;11.50;99.90;;;;;;5020112;28;20237;-74
2022/04/26 22:04:37;;;;;;;28.60;21.15;;;11.60;99.90;;;;;;5021072;28;20711;-73
2022/04/26 22:07:26;;;;;;;31.85;22.85;;;11.60;99.90;;;;;;5024235;28;20214;-73
2022/04/26 22:10:16;;;;;;;28.77;22.00;;;11.60;99.90;;;;;;5026410;28;20600;-72
2022/04/26 22:13:04;;;;;;;31.80;23.10;;;11.60;99.90;;;;;;5024118;28;20221;-72
2022/04/26 22:15:53;;;;;;;31.77;22.25;;;11.50;99.90;;;;;;5022294;28;20862;-73
2022/04/26 22:18:43;;;;;;;31.50;22.00;;;11.60;99.90;;;;;;5024960;28;20350;-72
2022/04/26 22:21:32;;;;;;;31.50;21.83;;;11.60;99.90;;;;;;5036886;28;20225;-73
2022/04/26 22:24:21;;;;;;;29.50;21.10;;;11.50;99.90;;;;;;5042657;28;20236;-72
2022/04/26 22:27:10;;;;;;;31.65;22.25;;;11.50;99.90;;;;;;5039720;28;20275;-73
2022/04/26 22:29:59;;;;;;;33.70;21.38;;;11.50;99.90;;;;;;5037123;28;20274;-75
2022/04/26 22:32:47;;;;;;;28.25;22.30;;;11.50;99.90;;;;;;5041359;28;20225;-71
2022/04/26 22:35:37;;;;;;;28.40;21.05;;;11.40;99.90;;;;;;5018543;28;20216;-73
2022/04/26 22:38:27;;;;;;;32.15;21.52;;;11.50;99.90;;;;;;5040421;28;20213;-74
2022/04/26 22:41:16;;;;;;;30.75;22.17;;;11.50;99.90;;;;;;5021203;28;20225;-73
2022/04/26 22:44:05;;;;;;;26.25;20.23;;;11.50;99.90;;;;;;5038983;28;20224;-73
2022/04/26 22:46:53;;;;;;;28.30;22.08;;;11.40;99.90;;;;;;5027786;28;20232;-74